createdAt,value
2022-10-11T00:04:17.024Z,3.08
2022-10-11T00:09:18.268Z,3.90
2022-10-11T00:14:19.547Z,4.07
2022-10-11T00:19:20.857Z,3.65
2022-10-11T00:24:22.249Z,3.73
2022-10-11T00:29:23.472Z,3.63
2022-10-11T00:34:25.148Z,3.72
2022-10-11T00:39:26.393Z,3.88
2022-10-11T00:44:28.704Z,3.33
2022-10-11T00:49:36.128Z,3.45
2022-10-11T00:54:39.809Z,3.70
2022-10-11T00:59:43.457Z,3.27
2022-10-11T01:04:44.809Z,3.00
2022-10-11T01:09:46.049Z,3.13
2022-10-11T01:15:05.943Z,3.23
2022-10-11T01:20:07.140Z,3.13
2022-10-11T01:25:24.512Z,3.80
2022-10-11T01:30:27.233Z,3.73
2022-10-11T01:35:32.325Z,3.92
2022-10-11T01:40:35.221Z,3.33
2022-10-11T01:45:37.233Z,3.07
2022-10-11T01:50:38.489Z,3.53
2022-10-11T01:55:46.958Z,3.38
2022-10-11T02:00:51.677Z,4.13
2022-10-11T02:06:01.126Z,4.07
2022-10-11T02:11:15.983Z,3.67
2022-10-11T02:16:19.749Z,3.63
2022-10-11T02:21:22.749Z,4.07
2022-10-11T02:26:24.864Z,3.33
2022-10-11T02:31:26.248Z,3.75
2022-10-11T02:36:36.076Z,3.47
2022-10-11T02:41:38.563Z,3.70
2022-10-11T02:46:40.582Z,3.58
2022-10-11T02:51:42.130Z,3.53
2022-10-11T02:56:43.414Z,3.42
2022-10-11T03:01:44.844Z,4.18
2022-10-11T03:06:46.136Z,3.50
2022-10-11T03:11:47.357Z,3.92
2022-10-11T03:16:48.748Z,3.83
2022-10-11T03:21:50.023Z,4.03
2022-10-11T03:26:51.741Z,3.70
2022-10-11T03:31:53.013Z,4.20
2022-10-11T03:36:54.228Z,3.88
2022-10-11T03:41:55.466Z,3.40
2022-10-11T03:46:56.702Z,4.18
2022-10-11T03:51:57.947Z,4.40
2022-10-11T03:56:59.281Z,4.60
2022-10-11T04:02:00.756Z,5.05
2022-10-11T04:07:02.177Z,4.85
2022-10-11T04:12:03.925Z,7.87
2022-10-11T04:17:05.196Z,6.88
2022-10-11T04:22:06.979Z,6.60
2022-10-11T04:27:08.220Z,5.97
2022-10-11T04:32:09.462Z,4.88
2022-10-11T04:37:10.740Z,7.00
2022-10-11T04:42:12.367Z,8.83
2022-10-11T04:47:13.599Z,8.23
2022-10-11T04:52:14.912Z,9.20
2022-10-11T04:57:16.141Z,9.33
2022-10-11T05:02:17.493Z,9.32
2022-10-11T05:07:18.859Z,9.67
2022-10-11T05:12:20.116Z,8.67
2022-10-11T05:17:21.893Z,8.52
2022-10-11T05:22:23.156Z,9.80
2022-10-11T05:27:24.379Z,9.93
2022-10-11T05:32:27.901Z,10.82
2022-10-11T05:37:29.560Z,9.80
2022-10-11T05:42:30.779Z,9.70
2022-10-11T05:47:32.020Z,9.93
2022-10-11T05:52:33.350Z,10.60
2022-10-11T05:57:34.715Z,9.40
2022-10-11T06:02:36.138Z,9.85
2022-10-11T06:07:38.363Z,12.00
2022-10-11T06:12:39.606Z,11.18
2022-10-11T06:17:40.863Z,9.07
2022-10-11T06:22:42.644Z,9.87
2022-10-11T06:27:43.918Z,10.45
2022-10-11T06:32:45.156Z,9.27
2022-10-11T06:37:46.428Z,9.50
2022-10-11T06:42:48.546Z,9.13
2022-10-11T06:47:49.781Z,8.68
2022-10-11T06:52:51.041Z,8.57
2022-10-11T06:57:52.273Z,7.63
2022-10-11T07:02:53.500Z,7.03
2022-10-11T07:07:54.950Z,6.30
2022-10-11T07:12:56.207Z,5.60
2022-10-11T07:17:57.458Z,6.88
2022-10-11T07:22:58.695Z,5.00
2022-10-11T07:27:59.948Z,4.70
2022-10-11T07:33:01.191Z,3.88
2022-10-11T07:38:03.015Z,3.80
2022-10-11T07:43:04.253Z,2.60
2022-10-11T07:48:05.709Z,3.65
2022-10-11T07:53:07.932Z,4.70
2022-10-11T07:58:09.786Z,4.70
2022-10-11T08:03:11.549Z,2.93
2022-10-11T08:08:12.882Z,2.55
2022-10-11T08:13:14.365Z,2.63
2022-10-11T08:18:15.708Z,3.00
2022-10-11T08:23:17.652Z,2.45
2022-10-11T08:28:18.985Z,2.40
2022-10-11T08:33:21.287Z,2.67
2022-10-11T08:38:22.724Z,2.10
2022-10-11T08:43:27.018Z,2.95
2022-10-11T08:48:42.064Z,3.33
2022-10-11T08:53:49.600Z,2.63
2022-10-11T08:59:01.919Z,4.65
2022-10-11T09:04:04.022Z,2.77
2022-10-11T09:09:23.933Z,3.17
2022-10-11T09:14:36.252Z,3.45
2022-10-11T11:37:26.610Z,5.22
2022-10-11T11:53:49.065Z,5.57
2022-10-11T11:59:09.397Z,6.60
2022-10-11T12:04:29.530Z,6.50
2022-10-11T12:09:31.189Z,4.68
2022-10-11T12:14:32.537Z,4.20
2022-10-11T12:19:34.326Z,5.23
2022-10-11T12:24:55.441Z,4.30
2022-10-11T12:29:56.684Z,3.92
2022-10-11T12:35:17.031Z,4.40
2022-10-11T12:40:46.970Z,7.68
2022-10-11T12:45:48.580Z,4.15
2022-10-11T12:51:03.291Z,3.80
2022-10-11T12:56:05.046Z,5.17
2022-10-11T13:01:08.891Z,5.90
2022-10-11T13:06:19.140Z,4.32
2022-10-11T13:11:22.473Z,5.97
2022-10-11T13:16:25.759Z,5.80
2022-10-11T13:21:27.041Z,4.10
2022-10-11T13:26:30.052Z,8.00
2022-10-11T13:31:31.336Z,4.78
2022-10-11T13:36:32.605Z,4.22
2022-10-11T13:41:35.142Z,4.33
2022-10-11T13:46:37.114Z,5.37
2022-10-11T13:51:38.570Z,4.90
2022-10-11T13:56:45.765Z,5.18
2022-10-11T14:01:47.350Z,4.37
2022-10-11T14:06:54.681Z,5.05
2022-10-11T14:11:55.972Z,4.60
2022-10-11T14:16:58.693Z,4.53
2022-10-11T14:21:59.956Z,4.88
2022-10-11T14:27:05.367Z,4.22
2022-10-11T14:32:17.357Z,4.13
2022-10-11T14:37:19.407Z,6.60
2022-10-11T14:42:20.687Z,4.00
2022-10-11T14:47:21.952Z,4.90
2022-10-11T14:52:23.528Z,4.40
2022-10-11T14:57:26.265Z,4.03
2022-10-11T15:02:27.548Z,4.38
2022-10-11T15:07:28.777Z,3.93
2022-10-11T15:12:30.064Z,4.13
2022-10-11T15:17:31.322Z,3.90
2022-10-11T15:22:32.583Z,4.70
2022-10-11T15:27:33.839Z,7.83
2022-10-11T15:32:35.111Z,3.80
2022-10-11T15:37:37.421Z,4.03
2022-10-11T15:42:39.183Z,3.80
2022-10-11T15:47:40.515Z,3.90
2022-10-11T15:52:41.773Z,6.07
2022-10-11T15:57:43.017Z,4.60
2022-10-11T16:02:44.277Z,5.07
2022-10-11T16:07:45.509Z,4.95
2022-10-11T16:12:47.150Z,4.70
2022-10-11T16:17:48.648Z,5.00
2022-10-11T16:22:50.546Z,6.45
2022-10-11T16:27:52.036Z,5.20
2022-10-11T16:32:53.277Z,5.00
2022-10-11T16:37:54.505Z,5.72
2022-10-11T16:42:55.773Z,5.85
2022-10-11T16:47:57.183Z,6.03
2022-10-11T16:52:58.430Z,6.10
2022-10-11T16:57:59.683Z,5.68
2022-10-11T17:03:01.958Z,6.57
2022-10-11T17:08:03.221Z,7.90
2022-10-11T17:13:05.285Z,6.57
2022-10-11T17:18:06.698Z,7.20
2022-10-11T17:23:08.208Z,6.20
2022-10-11T17:28:09.745Z,5.55
2022-10-11T17:33:11.031Z,5.38
2022-10-11T17:38:12.377Z,7.27
2022-10-11T17:43:15.596Z,8.10
2022-10-11T17:48:16.922Z,6.50
2022-10-11T17:53:18.341Z,6.47
2022-10-11T17:58:19.676Z,6.28
2022-10-11T18:03:21.079Z,6.43
2022-10-11T18:08:22.420Z,6.57
2022-10-11T18:13:23.798Z,6.63
2022-10-11T18:18:25.179Z,6.57
2022-10-11T18:23:27.055Z,7.43
2022-10-11T18:28:28.393Z,6.57
2022-10-11T18:33:29.779Z,6.37
2022-10-11T18:38:31.403Z,7.30
2022-10-11T18:43:33.017Z,7.38
2022-10-11T18:48:34.404Z,8.47
2022-10-11T18:53:36.244Z,7.10
2022-10-11T18:58:38.741Z,6.32
2022-10-11T19:03:40.011Z,7.27
2022-10-11T19:08:41.271Z,7.23
2022-10-11T19:13:42.836Z,7.88
2022-10-11T19:18:44.651Z,7.45
2022-10-11T19:23:46.691Z,7.03
2022-10-11T19:28:48.566Z,8.20
2022-10-11T19:33:50.183Z,9.60
2022-10-11T19:38:52.198Z,8.87
2022-10-11T19:43:54.101Z,8.15
2022-10-11T19:48:55.722Z,8.97
2022-10-11T19:53:57.755Z,7.63
2022-10-11T19:58:59.104Z,8.00
2022-10-11T20:04:03.482Z,7.10
2022-10-11T20:09:27.967Z,7.10
2022-10-11T20:14:26.355Z,7.30
2022-10-11T20:19:30.574Z,7.50
2022-10-11T20:24:34.218Z,7.70
2022-10-11T20:29:35.680Z,7.28
2022-10-11T20:34:39.407Z,9.00
2022-10-11T20:39:40.681Z,7.80
2022-10-11T20:44:43.589Z,6.57
2022-10-11T20:49:44.907Z,6.80
2022-10-11T20:54:46.180Z,7.47
2022-10-11T20:59:47.864Z,7.97
2022-10-11T21:04:49.212Z,6.80
2022-10-11T21:09:50.467Z,6.32
2022-10-11T21:14:51.697Z,7.67
2022-10-11T21:19:52.954Z,8.33
2022-10-11T21:24:54.187Z,10.43
2022-10-11T21:29:55.481Z,8.57
2022-10-11T21:34:56.742Z,7.50
2022-10-11T21:39:58.058Z,8.50
2022-10-11T21:44:59.309Z,7.93
2022-10-11T21:50:00.560Z,11.10
2022-10-11T21:55:01.783Z,8.27
2022-10-11T22:00:05.266Z,7.50
2022-10-11T22:05:06.568Z,7.73
2022-10-11T22:10:07.914Z,6.50
2022-10-11T22:15:09.368Z,6.13
2022-10-11T22:20:10.663Z,6.07
2022-10-11T22:25:11.915Z,6.85
2022-10-11T22:30:13.173Z,6.77
2022-10-11T22:35:14.474Z,5.90
2022-10-11T22:40:16.184Z,6.20
2022-10-11T22:45:17.608Z,5.30
2022-10-11T22:50:18.917Z,5.47
2022-10-11T22:55:20.453Z,6.22
2022-10-11T23:00:21.845Z,6.20
2022-10-11T23:05:23.110Z,6.47
2022-10-11T23:10:24.367Z,5.43
2022-10-11T23:15:25.642Z,6.13
2022-10-11T23:20:27.075Z,6.53
2022-10-11T23:25:28.357Z,6.73
2022-10-11T23:30:29.925Z,7.05
2022-10-11T23:35:31.211Z,6.32
2022-10-11T23:40:32.453Z,6.47
2022-10-11T23:45:33.800Z,6.55
2022-10-11T23:50:35.135Z,6.00
2022-10-11T23:55:36.502Z,6.23
